Time,TemperatureF,DewpointF,PressureIn,WindDirection,WindDirectionDegrees,WindSpeedMPH,WindSpeedGustMPH,Humidity,HourlyPrecipIn,Conditions,Clouds,dailyrainin,SoftwareType,DateUTC
2013-03-30 00:13:00,41.4,31.3,29.97,SW,225,3.2,-999.0,67,-99.99,,,0.00,Acu-Link.com,2013-03-30 04:13:00,
2013-03-30 00:28:00,41.4,31.3,29.98,East,90,2.7,-999.0,67,-99.99,,,0.00,Acu-Link.com,2013-03-30 04:28:00,
2013-03-30 00:43:00,41.4,31.6,29.98,NE,45,2.2,-999.0,68,-99.99,,,0.00,Acu-Link.com,2013-03-30 04:43:00,
2013-03-30 00:58:00,41.4,31.6,29.97,ENE,67,3.7,-999.0,68,-99.99,,,0.00,Acu-Link.com,2013-03-30 04:58:00,
2013-03-30 01:14:00,41.4,32.0,29.97,West,270,3.2,-999.0,69,-99.99,,,0.00,Acu-Link.com,2013-03-30 05:14:00,
2013-03-30 01:29:00,41.4,32.4,29.97,NW,315,3.2,-999.0,70,-99.99,,,0.00,Acu-Link.com,2013-03-30 05:29:00,
2013-03-30 01:44:00,41.2,32.2,29.98,ENE,67,2.7,-999.0,70,-99.99,,,0.00,Acu-Link.com,2013-03-30 05:44:00,
2013-03-30 01:59:00,41.2,32.2,29.97,NNW,337,0.0,-999.0,70,-99.99,,,0.00,Acu-Link.com,2013-03-30 05:59:00,
2013-03-30 02:14:00,40.8,31.8,29.97,North,0,1.1,-999.0,70,-99.99,,,0.00,Acu-Link.com,2013-03-30 06:14:00,
2013-03-30 02:30:00,40.5,31.5,29.97,East,90,0.0,-999.0,70,-99.99,,,0.00,Acu-Link.com,2013-03-30 06:30:00,
2013-03-30 02:45:00,40.1,31.5,29.96,WNW,292,0.0,-999.0,71,-99.99,,,0.00,Acu-Link.com,2013-03-30 06:45:00,
2013-03-30 03:00:00,39.9,31.6,29.97,SE,135,1.1,-999.0,72,-99.99,,,0.00,Acu-Link.com,2013-03-30 07:00:00,
2013-03-30 03:15:00,40.5,31.5,29.97,NNE,22,2.7,-999.0,70,-99.99,,,0.00,Acu-Link.com,2013-03-30 07:15:00,
2013-03-30 03:30:00,40.5,31.8,29.97,NE,45,0.0,-999.0,71,-99.99,,,0.00,Acu-Link.com,2013-03-30 07:30:00,
2013-03-30 03:46:00,40.3,31.7,29.97,West,270,2.2,-999.0,71,-99.99,,,0.00,Acu-Link.com,2013-03-30 07:46:00,
2013-03-30 04:16:00,40.1,31.1,29.97,NW,315,2.7,-999.0,70,-99.99,,,0.00,Acu-Link.com,2013-03-30 08:16:00,
2013-03-30 04:31:00,39.6,30.6,29.97,WNW,292,1.7,-999.0,70,-99.99,,,0.00,Acu-Link.com,2013-03-30 08:31:00,
2013-03-30 04:46:00,38.5,30.3,29.97,NE,45,1.1,-999.0,72,-99.99,,,0.00,Acu-Link.com,2013-03-30 08:46:00,
2013-03-30 05:02:00,37.6,30.1,29.98,SSW,202,0.0,-999.0,74,-99.99,,,0.00,Acu-Link.com,2013-03-30 09:02:00,
2013-03-30 05:17:00,36.7,30.2,29.97,NW,315,0.0,-999.0,77,-99.99,,,0.00,Acu-Link.com,2013-03-30 09:17:00,
2013-03-30 05:32:00,36.0,29.8,29.97,North,0,1.1,-999.0,78,-99.99,,,0.00,Acu-Link.com,2013-03-30 09:32:00,
2013-03-30 05:47:00,35.1,29.3,29.97,NNE,22,0.0,-999.0,79,-99.99,,,0.00,Acu-Link.com,2013-03-30 09:47:00,
2013-03-30 06:02:00,34.7,29.2,29.97,WNW,292,0.0,-999.0,80,-99.99,,,0.00,Acu-Link.com,2013-03-30 10:02:00,
2013-03-30 06:17:00,34.5,28.7,29.99,NNE,22,0.0,-999.0,79,-99.99,,,0.00,Acu-Link.com,2013-03-30 10:17:00,
2013-03-30 06:33:00,33.6,28.4,29.98,WSW,247,0.0,-999.0,81,-99.99,,,0.00,Acu-Link.com,2013-03-30 10:33:00,
2013-03-30 06:48:00,33.1,28.8,29.98,NNW,337,0.0,-999.0,84,-99.99,,,0.00,Acu-Link.com,2013-03-30 10:48:00,
2013-03-30 07:03:00,32.9,28.6,29.98,SW,225,0.0,-999.0,84,-99.99,,,0.00,Acu-Link.com,2013-03-30 11:03:00,
2013-03-30 07:18:00,32.9,28.9,29.98,SW,225,0.0,-999.0,85,-99.99,,,0.00,Acu-Link.com,2013-03-30 11:18:00,
2013-03-30 07:33:00,33.4,29.1,29.99,SW,225,0.0,-999.0,84,-99.99,,,0.00,Acu-Link.com,2013-03-30 11:33:00,
2013-03-30 07:49:00,34.7,29.5,29.99,North,0,0.0,-999.0,81,-99.99,,,0.00,Acu-Link.com,2013-03-30 11:49:00,
2013-03-30 08:04:00,37.0,29.8,29.99,West,270,1.7,-999.0,75,-99.99,,,0.00,Acu-Link.com,2013-03-30 12:04:00,
2013-03-30 08:20:00,39.4,29.7,29.98,ESE,112,1.1,-999.0,68,-99.99,,,0.00,Acu-Link.com,2013-03-30 12:20:00,
2013-03-30 08:35:00,41.5,29.9,29.98,WSW,247,1.7,-999.0,63,-99.99,,,0.00,Acu-Link.com,2013-03-30 12:35:00,
2013-03-30 08:50:00,42.6,28.9,29.97,SSW,202,1.1,-999.0,58,-99.99,,,0.00,Acu-Link.com,2013-03-30 12:50:00,
2013-03-30 09:05:00,44.1,29.0,29.98,ENE,67,1.7,-999.0,55,-99.99,,,0.00,Acu-Link.com,2013-03-30 13:05:00,
2013-03-30 09:21:00,45.0,27.5,29.98,NE,45,2.2,-999.0,50,-99.99,,,0.00,Acu-Link.com,2013-03-30 13:21:00,
2013-03-30 10:06:00,47.7,25.7,29.98,ENE,67,4.7,-999.0,42,-99.99,,,0.00,Acu-Link.com,2013-03-30 14:06:00,
2013-03-30 10:21:00,48.9,23.8,29.99,NNE,22,4.7,-999.0,37,-99.99,,,0.00,Acu-Link.com,2013-03-30 14:21:00,
2013-03-30 10:37:00,48.4,23.3,29.98,ENE,67,4.2,-999.0,37,-99.99,,,0.00,Acu-Link.com,2013-03-30 14:37:00,
2013-03-30 10:52:00,49.3,20.0,29.97,SE,135,3.2,-999.0,31,-99.99,,,0.00,Acu-Link.com,2013-03-30 14:52:00,
2013-03-30 11:07:00,50.4,19.4,29.98,ENE,67,5.3,-999.0,29,-99.99,,,0.00,Acu-Link.com,2013-03-30 15:07:00,
2013-03-30 11:22:00,50.2,18.4,29.98,ESE,112,6.3,-999.0,28,-99.99,,,0.00,Acu-Link.com,2013-03-30 15:22:00,
2013-03-30 11:37:00,50.4,18.5,29.97,ENE,67,3.7,-999.0,28,-99.99,,,0.00,Acu-Link.com,2013-03-30 15:37:00,
2013-03-30 11:53:00,51.1,20.0,29.97,NNW,337,4.2,-999.0,29,-99.99,,,0.00,Acu-Link.com,2013-03-30 15:53:00,
2013-03-30 12:08:00,50.7,20.4,29.96,NE,45,3.7,-999.0,30,-99.99,,,0.00,Acu-Link.com,2013-03-30 16:08:00,
2013-03-30 12:23:00,52.2,20.1,29.96,South,180,2.2,-999.0,28,-99.99,,,0.00,Acu-Link.com,2013-03-30 16:23:00,
2013-03-30 12:38:00,52.9,18.1,29.95,NW,315,5.3,-999.0,25,-99.99,,,0.00,Acu-Link.com,2013-03-30 16:38:00,
2013-03-30 12:54:00,52.5,17.7,29.96,NW,315,3.2,-999.0,25,-99.99,,,0.00,Acu-Link.com,2013-03-30 16:54:00,
2013-03-30 13:09:00,52.9,18.1,29.96,NNE,22,3.2,-999.0,25,-99.99,,,0.00,Acu-Link.com,2013-03-30 17:09:00,
2013-03-30 13:24:00,53.8,17.9,29.95,North,0,4.2,-999.0,24,-99.99,,,0.00,Acu-Link.com,2013-03-30 17:24:00,
2013-03-30 13:39:00,54.0,17.1,29.95,WSW,247,7.8,-999.0,23,-99.99,,,0.00,Acu-Link.com,2013-03-30 17:39:00,
2013-03-30 13:54:00,54.0,17.1,29.95,NNW,337,3.2,-999.0,23,-99.99,,,0.00,Acu-Link.com,2013-03-30 17:54:00,
2013-03-30 14:10:00,54.3,16.3,29.95,East,90,2.7,-999.0,22,-99.99,,,0.00,Acu-Link.com,2013-03-30 18:10:00,
2013-03-30 14:25:00,54.5,19.4,29.94,SW,225,2.7,-999.0,25,-99.99,,,0.00,Acu-Link.com,2013-03-30 18:25:00,
2013-03-30 14:40:00,54.3,17.3,29.94,NE,45,5.3,-999.0,23,-99.99,,,0.00,Acu-Link.com,2013-03-30 18:40:00,
2013-03-30 14:55:00,55.2,18.1,29.94,NNE,22,2.7,-999.0,23,-99.99,,,0.00,Acu-Link.com,2013-03-30 18:55:00,
2013-03-30 15:10:00,54.5,16.5,29.93,SW,225,3.7,-999.0,22,-99.99,,,0.00,Acu-Link.com,2013-03-30 19:10:00,
2013-03-30 15:26:00,55.6,16.3,29.94,SSW,202,3.2,-999.0,21,-99.99,,,0.00,Acu-Link.com,2013-03-30 19:26:00,
2013-03-30 15:41:00,56.1,17.8,29.93,NNW,337,4.2,-999.0,22,-99.99,,,0.00,Acu-Link.com,2013-03-30 19:41:00,
2013-03-30 15:56:00,56.3,18.0,29.92,North,0,1.7,-999.0,22,-99.99,,,0.00,Acu-Link.com,2013-03-30 19:56:00,
2013-03-30 16:11:00,55.9,19.6,29.92,SSE,157,2.2,-999.0,24,-99.99,,,0.00,Acu-Link.com,2013-03-30 20:11:00,
2013-03-30 16:26:00,55.9,20.6,29.91,SW,225,2.7,-999.0,25,-99.99,,,0.00,Acu-Link.com,2013-03-30 20:26:00,
2013-03-30 16:42:00,56.1,19.8,29.93,NNE,22,2.7,-999.0,24,-99.99,,,0.00,Acu-Link.com,2013-03-30 20:42:00,
2013-03-30 16:57:00,56.5,19.2,29.92,NNE,22,5.3,-999.0,23,-99.99,,,0.00,Acu-Link.com,2013-03-30 20:57:00,
2013-03-30 17:12:00,57.7,19.1,29.92,WSW,247,7.8,-999.0,22,-99.99,,,0.00,Acu-Link.com,2013-03-30 21:12:00,
2013-03-30 17:27:00,54.3,19.2,29.93,SSW,202,2.7,-999.0,25,-99.99,,,0.00,Acu-Link.com,2013-03-30 21:27:00,
2013-03-30 17:42:00,56.7,17.2,29.92,SSW,202,5.8,-999.0,21,-99.99,,,0.00,Acu-Link.com,2013-03-30 21:42:00,
2013-03-30 17:58:00,57.6,19.0,29.92,SW,225,3.7,-999.0,22,-99.99,,,0.00,Acu-Link.com,2013-03-30 21:58:00,
2013-03-30 18:13:00,55.8,17.5,29.93,SSW,202,3.2,-999.0,22,-99.99,,,0.00,Acu-Link.com,2013-03-30 22:13:00,
2013-03-30 18:28:00,55.4,18.2,29.93,NNE,22,2.7,-999.0,23,-99.99,,,0.00,Acu-Link.com,2013-03-30 22:28:00,
2013-03-30 18:43:00,53.1,17.3,29.93,SSE,157,0.0,-999.0,24,-99.99,,,0.00,Acu-Link.com,2013-03-30 22:43:00,
2013-03-30 18:59:00,51.4,18.6,29.94,ESE,112,0.0,-999.0,27,-99.99,,,0.00,Acu-Link.com,2013-03-30 22:59:00,
2013-03-30 19:14:00,49.8,18.0,29.94,South,180,1.1,-999.0,28,-99.99,,,0.00,Acu-Link.com,2013-03-30 23:14:00,
2013-03-30 19:29:00,48.7,17.9,29.95,NNE,22,2.7,-999.0,29,-99.99,,,0.00,Acu-Link.com,2013-03-30 23:29:00,
2013-03-30 19:44:00,47.7,17.8,29.96,NE,45,0.0,-999.0,30,-99.99,,,0.00,Acu-Link.com,2013-03-30 23:44:00,
2013-03-30 19:59:00,46.4,18.2,29.97,NNE,22,1.1,-999.0,32,-99.99,,,0.00,Acu-Link.com,2013-03-30 23:59:00,
2013-03-30 20:15:00,45.3,18.6,29.98,NE,45,1.1,-999.0,34,-99.99,,,0.00,Acu-Link.com,2013-03-31 00:15:00,
2013-03-30 20:30:00,44.2,19.6,30.00,East,90,0.0,-999.0,37,-99.99,,,0.00,Acu-Link.com,2013-03-31 00:30:00,
2013-03-30 20:45:00,43.3,21.2,29.99,ENE,67,0.0,-999.0,41,-99.99,,,0.00,Acu-Link.com,2013-03-31 00:45:00,
2013-03-30 21:00:00,43.0,19.8,30.00,NNE,22,0.0,-999.0,39,-99.99,,,0.00,Acu-Link.com,2013-03-31 01:00:00,
2013-03-30 21:15:00,42.3,19.7,30.00,East,90,0.0,-999.0,40,-99.99,,,0.00,Acu-Link.com,2013-03-31 01:15:00,
2013-03-30 21:31:00,42.1,20.1,30.00,East,90,1.7,-999.0,41,-99.99,,,0.00,Acu-Link.com,2013-03-31 01:31:00,
2013-03-30 22:01:00,41.5,19.0,30.02,ENE,67,1.1,-999.0,40,-99.99,,,0.00,Acu-Link.com,2013-03-31 02:01:00,
2013-03-30 22:31:00,41.2,20.4,30.01,East,90,0.0,-999.0,43,-99.99,,,0.00,Acu-Link.com,2013-03-31 02:31:00,
2013-03-30 22:47:00,40.6,20.4,30.01,East,90,0.0,-999.0,44,-99.99,,,0.00,Acu-Link.com,2013-03-31 02:47:00,
2013-03-30 23:02:00,40.1,20.5,30.00,ENE,67,0.0,-999.0,45,-99.99,,,0.00,Acu-Link.com,2013-03-31 03:02:00,
2013-03-30 23:17:00,39.9,20.8,30.01,West,270,0.0,-999.0,46,-99.99,,,0.00,Acu-Link.com,2013-03-31 03:17:00,
2013-03-30 23:32:00,39.6,21.1,30.01,ENE,67,0.0,-999.0,47,-99.99,,,0.00,Acu-Link.com,2013-03-31 03:32:00,
2013-03-30 23:47:00,39.0,21.0,30.02,East,90,0.0,-999.0,48,-99.99,,,0.00,Acu-Link.com,2013-03-31 03:47:00,